Suzuka, Japan
Current Conditions -  °F | °C
As of 6:00 PM on Saturday 22 Nov 2014 (Local Time) from RJGG Reporting Station
Few Clouds Few Clouds  
Wind Chill: 17°   Ceiling: Unl
Heat Index: 17°   Visibility: 6mi
Dew Point: 12°   Wind: 8mph
Humidity: 72%   Direction: 250°WSW
Pressure: 30.15"   Gusts: NA
Location:  34.88°N, 136.58°E
Report Text: RJGG 220900Z 25007KT 9999 FEW030 17/12 Q1021 BECMG 32007KT
Loading
Personal Weather Stations






























Interactive Weather Map New forecast layout! Learn more

10-Day Weather Forecast

Advertisements
Track Severe Weather on mobile